createdAt,value
2018-09-02T00:00:36.319Z,23.66
2018-09-02T00:03:05.521Z,23.49
2018-09-02T00:05:34.134Z,23.65
2018-09-02T00:08:03.502Z,23.31
2018-09-02T00:10:32.174Z,23.44
2018-09-02T00:13:00.548Z,23.53
2018-09-02T00:15:29.075Z,23.51
2018-09-02T00:17:57.476Z,23.60
2018-09-02T00:20:25.896Z,23.46
2018-09-02T00:22:54.924Z,23.49
2018-09-02T00:25:23.303Z,23.33
2018-09-02T00:27:51.703Z,23.37
2018-09-02T00:30:20.114Z,23.44
2018-09-02T00:32:48.496Z,23.38
2018-09-02T00:35:16.849Z,23.36
2018-09-02T00:37:45.210Z,23.38
2018-09-02T00:40:13.558Z,23.41
2018-09-02T00:42:42.118Z,23.38
2018-09-02T00:45:10.498Z,23.34
2018-09-02T00:47:39.146Z,23.28
2018-09-02T00:50:08.438Z,23.25
2018-09-02T00:52:37.288Z,23.32
2018-09-02T00:55:05.813Z,23.22
2018-09-02T00:57:34.184Z,23.27
2018-09-02T01:00:03.320Z,23.29
2018-09-02T01:02:31.948Z,23.22
2018-09-02T01:05:00.294Z,23.08
2018-09-02T01:07:28.983Z,23.25
2018-09-02T01:09:57.344Z,23.38
2018-09-02T01:12:25.764Z,23.21
2018-09-02T01:14:54.118Z,23.22
2018-09-02T01:17:22.563Z,23.33
2018-09-02T01:19:51.063Z,23.18
2018-09-02T01:22:19.539Z,23.12
2018-09-02T01:24:48.475Z,23.14
2018-09-02T01:27:16.822Z,23.13
2018-09-02T01:29:45.179Z,23.04
2018-09-02T01:32:14.455Z,23.01
2018-09-02T01:34:42.836Z,22.84
2018-09-02T01:37:11.756Z,22.85
2018-09-02T01:39:40.156Z,22.94
2018-09-02T01:42:08.537Z,23.04
2018-09-02T01:44:36.918Z,22.89
2018-09-02T01:47:05.660Z,22.96
2018-09-02T01:49:34.065Z,22.92
2018-09-02T01:52:02.701Z,22.78
2018-09-02T01:54:31.076Z,22.89
2018-09-02T01:56:59.542Z,22.94
2018-09-02T01:59:27.963Z,22.90
2018-09-02T02:01:56.325Z,22.93
2018-09-02T02:04:27.261Z,23.00
2018-09-02T02:06:55.635Z,22.83
2018-09-02T02:09:24.209Z,22.76
2018-09-02T02:11:52.609Z,22.89
2018-09-02T02:14:20.964Z,22.93
2018-09-02T02:16:49.349Z,22.77
2018-09-02T02:19:17.921Z,22.85
2018-09-02T02:21:46.330Z,22.94
2018-09-02T02:24:14.708Z,22.97
2018-09-02T02:26:44.165Z,23.08
2018-09-02T02:29:12.873Z,23.14
2018-09-02T02:31:41.324Z,23.07
2018-09-02T02:34:09.732Z,23.00
2018-09-02T02:36:38.241Z,23.14
2018-09-02T02:39:08.909Z,23.08
2018-09-02T02:41:37.433Z,22.98
2018-09-02T02:44:06.006Z,22.95
2018-09-02T02:46:34.673Z,22.78
2018-09-02T02:49:03.317Z,22.77
2018-09-02T02:51:31.777Z,22.78
2018-09-02T02:54:00.303Z,22.78
2018-09-02T02:56:28.739Z,22.81
2018-09-02T02:58:57.110Z,22.72
2018-09-02T03:01:25.423Z,22.74
2018-09-02T03:03:54.497Z,22.77
2018-09-02T03:12:21.696Z,22.79
2018-09-02T03:14:50.131Z,22.82
2018-09-02T03:17:18.582Z,22.78
2018-09-02T03:19:47.569Z,22.90
2018-09-02T03:22:16.234Z,22.61
2018-09-02T03:24:44.689Z,22.65
2018-09-02T03:27:13.170Z,22.65
2018-09-02T03:29:41.627Z,22.50
2018-09-02T03:32:10.051Z,22.58
2018-09-02T03:34:38.516Z,22.59
2018-09-02T03:37:07.409Z,22.42
2018-09-02T03:39:36.092Z,22.26
2018-09-02T03:42:04.526Z,22.28
2018-09-02T03:44:32.936Z,22.40
2018-09-02T03:47:01.566Z,22.40
2018-09-02T03:49:29.958Z,22.38
2018-09-02T03:51:58.379Z,22.39
2018-09-02T03:54:26.926Z,22.52
2018-09-02T03:56:55.554Z,22.33
2018-09-02T03:59:24.005Z,22.20
2018-09-02T04:01:52.407Z,22.08
2018-09-02T04:04:20.831Z,22.27
2018-09-02T04:06:49.294Z,22.17
2018-09-02T04:09:17.709Z,22.08
2018-09-02T04:11:46.211Z,22.08
2018-09-02T04:14:14.869Z,22.23
2018-09-02T04:16:43.573Z,22.14
2018-09-02T04:19:12.025Z,22.00
2018-09-02T04:21:40.671Z,22.22
2018-09-02T04:24:09.108Z,22.15
2018-09-02T04:26:37.645Z,21.92
2018-09-02T04:29:06.088Z,22.22
2018-09-02T04:31:34.493Z,22.23
2018-09-02T04:34:02.873Z,22.28
2018-09-02T04:36:31.247Z,22.23
2018-09-02T04:38:59.617Z,22.19
2018-09-02T04:41:28.150Z,22.22
2018-09-02T04:43:56.622Z,22.09
2018-09-02T04:46:25.074Z,22.24
2018-09-02T04:48:53.497Z,22.13
2018-09-02T04:51:21.799Z,22.12
2018-09-02T04:53:50.177Z,22.02
2018-09-02T04:56:18.617Z,22.11
2018-09-02T04:58:46.985Z,22.26
2018-09-02T05:01:15.402Z,22.23
2018-09-02T05:03:43.804Z,22.28
2018-09-02T05:06:13.375Z,22.26
2018-09-02T05:08:41.753Z,22.31
2018-09-02T05:11:10.159Z,22.29
2018-09-02T05:13:38.653Z,22.06
2018-09-02T05:16:07.084Z,21.97
2018-09-02T05:18:35.787Z,22.06
2018-09-02T05:21:04.268Z,21.80
2018-09-02T05:23:32.766Z,21.60
2018-09-02T05:26:01.305Z,21.57
2018-09-02T05:28:29.658Z,21.71
2018-09-02T05:30:58.205Z,21.71
2018-09-02T05:33:26.557Z,21.69
2018-09-02T05:35:54.970Z,21.51
2018-09-02T05:38:23.509Z,21.51
2018-09-02T05:40:51.912Z,21.73
2018-09-02T05:43:20.429Z,21.81
2018-09-02T05:45:48.763Z,21.99
2018-09-02T05:48:17.159Z,22.02
2018-09-02T05:50:45.565Z,22.06
2018-09-02T05:53:14.014Z,22.15
2018-09-02T05:55:42.504Z,22.13
2018-09-02T05:58:10.876Z,21.99
2018-09-02T06:00:40.270Z,21.98
2018-09-02T06:03:08.711Z,22.31
2018-09-02T06:05:37.183Z,22.10
2018-09-02T06:08:05.671Z,22.30
2018-09-02T06:10:34.292Z,22.36
2018-09-02T06:13:02.694Z,22.38
2018-09-02T06:15:31.104Z,22.30
2018-09-02T06:17:59.523Z,22.35
2018-09-02T06:20:28.106Z,22.49
2018-09-02T06:22:56.492Z,22.42
2018-09-02T06:25:25.186Z,22.63
2018-09-02T06:27:53.560Z,22.57
2018-09-02T06:30:22.351Z,22.51
2018-09-02T06:32:50.842Z,22.73
2018-09-02T06:35:19.314Z,22.79
2018-09-02T06:37:47.878Z,22.87
2018-09-02T06:40:16.950Z,23.10
2018-09-02T06:42:45.375Z,22.81
2018-09-02T06:45:13.837Z,23.06
2018-09-02T06:52:29.907Z,23.13
2018-09-02T06:54:58.375Z,23.32
2018-09-02T06:57:26.782Z,23.23
2018-09-02T06:59:55.212Z,23.33
2018-09-02T07:02:23.718Z,23.35
2018-09-02T07:04:52.161Z,23.31
2018-09-02T07:07:21.356Z,23.38
2018-09-02T07:09:49.724Z,23.42
2018-09-02T07:12:18.210Z,23.28
2018-09-02T07:14:46.602Z,23.44
2018-09-02T07:17:15.087Z,23.29
2018-09-02T07:19:43.686Z,23.27
2018-09-02T07:22:12.114Z,23.35
2018-09-02T07:24:41.455Z,23.15
2018-09-02T07:27:09.942Z,23.34
2018-09-02T07:29:38.413Z,23.31
2018-09-02T07:32:07.484Z,23.21
2018-09-02T07:34:35.951Z,23.35
2018-09-02T07:37:04.438Z,23.75
2018-09-02T07:39:32.797Z,23.77
2018-09-02T07:42:01.210Z,23.98
2018-09-02T07:44:29.666Z,23.58
2018-09-02T07:46:58.170Z,23.85
2018-09-02T07:49:26.582Z,23.91
2018-09-02T07:51:55.077Z,24.37
2018-09-02T07:54:23.479Z,24.08
2018-09-02T07:56:52.330Z,23.92
2018-09-02T07:59:20.783Z,23.97
2018-09-02T08:01:49.142Z,23.51
2018-09-02T08:04:17.717Z,24.05
2018-09-02T08:06:46.071Z,24.51
2018-09-02T08:09:14.456Z,24.54
2018-09-02T08:11:42.838Z,24.33
2018-09-02T08:14:11.216Z,24.31
2018-09-02T08:16:40.184Z,23.98
2018-09-02T08:19:08.936Z,23.64
2018-09-02T08:21:37.491Z,23.62
2018-09-02T08:24:05.938Z,23.79
2018-09-02T08:26:35.275Z,23.99
2018-09-02T08:29:03.719Z,24.00
2018-09-02T08:31:32.092Z,23.63
2018-09-02T08:34:00.514Z,23.61
2018-09-02T08:36:29.052Z,23.79
2018-09-02T08:38:57.461Z,24.13
2018-09-02T08:41:25.984Z,24.35
2018-09-02T08:43:54.595Z,24.19
2018-09-02T08:46:23.230Z,24.43
2018-09-02T08:48:51.771Z,24.13
2018-09-02T08:51:20.144Z,24.67
2018-09-02T08:53:48.555Z,25.00
2018-09-02T08:56:16.940Z,25.04
2018-09-02T08:58:45.314Z,24.68
2018-09-02T09:01:13.808Z,24.68
2018-09-02T09:03:42.204Z,24.80
2018-09-02T09:06:10.615Z,24.71
2018-09-02T09:08:39.441Z,24.66
2018-09-02T09:11:08.841Z,24.78
2018-09-02T09:13:37.507Z,24.81
2018-09-02T09:16:05.998Z,24.86
2018-09-02T09:18:35.514Z,24.88
2018-09-02T09:21:04.000Z,24.93
2018-09-02T09:23:32.545Z,25.03
2018-09-02T09:26:01.392Z,24.85
2018-09-02T09:28:29.928Z,24.92
2018-09-02T09:30:58.375Z,24.97
2018-09-02T09:33:27.080Z,24.72
2018-09-02T09:35:56.108Z,24.85
2018-09-02T09:38:24.584Z,24.69
2018-09-02T09:40:53.142Z,24.54
2018-09-02T09:43:21.727Z,25.13
2018-09-02T09:45:50.909Z,25.16
2018-09-02T09:48:19.877Z,25.22
2018-09-02T09:50:48.656Z,24.93
2018-09-02T09:53:17.796Z,25.38
2018-09-02T09:55:46.249Z,25.66
2018-09-02T09:58:15.086Z,25.61
2018-09-02T10:00:50.925Z,25.57
2018-09-02T10:03:20.160Z,25.69
2018-09-02T10:05:48.925Z,26.07
2018-09-02T10:08:17.725Z,26.06
2018-09-02T10:10:46.388Z,26.56
2018-09-02T10:13:14.988Z,26.57
2018-09-02T10:15:43.702Z,26.37
2018-09-02T10:18:13.334Z,26.59
2018-09-02T10:20:41.918Z,26.43
2018-09-02T10:23:10.443Z,26.52
2018-09-02T10:25:39.789Z,26.53
2018-09-02T10:28:08.432Z,26.32
2018-09-02T10:30:38.131Z,26.06
2018-09-02T10:33:07.332Z,25.70
2018-09-02T10:35:36.025Z,25.41
2018-09-02T10:38:04.975Z,25.52
2018-09-02T10:40:34.111Z,25.31
2018-09-02T10:43:03.707Z,25.16
2018-09-02T10:45:32.212Z,25.08
2018-09-02T10:48:01.008Z,25.01
2018-09-02T10:50:29.602Z,25.04
2018-09-02T10:52:59.870Z,25.14
2018-09-02T10:55:28.289Z,24.93
2018-09-02T10:57:57.254Z,25.12
2018-09-02T11:00:32.316Z,25.33
2018-09-02T11:03:00.796Z,25.42
2018-09-02T11:05:29.267Z,25.45
2018-09-02T11:07:57.687Z,25.34
2018-09-02T11:10:26.118Z,25.55
2018-09-02T11:12:54.547Z,25.69
2018-09-02T11:15:23.117Z,25.31
2018-09-02T11:17:51.628Z,25.64
2018-09-02T11:20:20.183Z,25.58
2018-09-02T11:22:48.588Z,25.77
2018-09-02T11:25:16.928Z,25.57
2018-09-02T11:27:45.365Z,25.81
2018-09-02T11:30:13.775Z,25.70
2018-09-02T11:32:42.271Z,25.65
2018-09-02T11:35:10.832Z,25.50
2018-09-02T11:37:39.413Z,25.41
2018-09-02T11:40:07.853Z,25.24
2018-09-02T11:42:36.577Z,25.33
2018-09-02T11:45:05.147Z,25.44
2018-09-02T11:47:33.522Z,25.19
2018-09-02T11:50:01.919Z,25.05
2018-09-02T11:52:30.556Z,25.21
2018-09-02T11:54:59.027Z,25.26
2018-09-02T11:57:28.253Z,25.18
2018-09-02T11:59:57.302Z,25.11
2018-09-02T12:02:25.760Z,25.11
2018-09-02T12:04:54.257Z,25.15
2018-09-02T12:07:22.572Z,25.10
2018-09-02T12:09:51.194Z,25.05
2018-09-02T12:12:19.589Z,24.90
2018-09-02T12:14:48.002Z,24.98
2018-09-02T12:17:16.389Z,25.00
2018-09-02T12:19:44.907Z,25.13
2018-09-02T12:22:13.417Z,25.20
2018-09-02T12:24:41.769Z,24.96
2018-09-02T12:27:10.342Z,25.02
2018-09-02T12:29:38.752Z,24.94
2018-09-02T12:32:07.267Z,24.85
2018-09-02T12:34:35.852Z,24.70
2018-09-02T12:37:04.331Z,24.65
2018-09-02T12:39:32.800Z,24.38
2018-09-02T12:42:01.153Z,24.54
2018-09-02T12:44:29.599Z,24.45
2018-09-02T12:46:58.063Z,24.83
2018-09-02T12:49:26.455Z,24.41
2018-09-02T12:51:54.971Z,24.54
2018-09-02T12:54:23.652Z,24.70
2018-09-02T12:56:51.967Z,24.59
2018-09-02T12:59:20.486Z,24.60
2018-09-02T13:01:49.032Z,24.54
2018-09-02T13:04:17.667Z,24.15
2018-09-02T13:06:46.985Z,24.44
2018-09-02T13:09:15.416Z,24.44
2018-09-02T13:11:44.145Z,24.40
2018-09-02T13:14:12.855Z,24.44
2018-09-02T13:16:41.508Z,24.48
2018-09-02T13:19:10.053Z,24.52
2018-09-02T13:21:38.490Z,24.30
2018-09-02T13:24:07.041Z,24.49
2018-09-02T13:26:35.491Z,24.47
2018-09-02T13:29:05.373Z,24.21
2018-09-02T13:31:33.809Z,24.23
2018-09-02T13:34:02.223Z,24.30
2018-09-02T13:36:30.642Z,24.31
2018-09-02T13:38:58.948Z,24.33
2018-09-02T13:41:27.334Z,24.77
2018-09-02T13:43:55.756Z,24.60
2018-09-02T13:46:24.805Z,24.39
2018-09-02T13:48:53.278Z,24.60
2018-09-02T13:51:21.973Z,24.59
2018-09-02T13:53:50.319Z,24.61
2018-09-02T13:56:18.802Z,24.70
2018-09-02T13:58:47.261Z,24.58
2018-09-02T14:01:16.512Z,24.45
2018-09-02T14:03:44.966Z,24.55
2018-09-02T14:06:14.364Z,24.62
2018-09-02T14:08:42.788Z,24.56
2018-09-02T14:11:11.360Z,24.53
2018-09-02T14:13:39.784Z,24.43
2018-09-02T14:16:08.146Z,24.33
2018-09-02T14:18:36.909Z,24.35
2018-09-02T14:21:06.107Z,24.27
2018-09-02T14:23:34.850Z,24.50
2018-09-02T14:26:03.391Z,24.60
2018-09-02T14:28:33.070Z,24.58
2018-09-02T14:31:01.451Z,24.59
2018-09-02T14:33:29.849Z,24.51
2018-09-02T14:35:58.398Z,24.46
2018-09-02T14:38:26.790Z,24.52
2018-09-02T14:40:55.578Z,24.62
2018-09-02T14:43:24.143Z,24.50
2018-09-02T14:45:52.555Z,24.35
2018-09-02T14:48:21.147Z,24.39
2018-09-02T14:50:49.627Z,24.41
2018-09-02T14:53:17.995Z,24.16
2018-09-02T14:55:46.377Z,24.37
2018-09-02T14:58:14.821Z,24.31
2018-09-02T15:00:43.335Z,24.25
2018-09-02T15:03:11.740Z,24.38
2018-09-02T15:05:40.313Z,24.45
2018-09-02T15:08:08.718Z,24.66
2018-09-02T15:10:37.219Z,24.49
2018-09-02T15:13:05.599Z,24.62
2018-09-02T15:15:33.969Z,24.57
2018-09-02T15:18:02.365Z,24.70
2018-09-02T15:20:30.885Z,24.68
2018-09-02T15:22:59.724Z,24.58
2018-09-02T15:25:28.773Z,24.64
2018-09-02T15:27:58.203Z,24.58
2018-09-02T15:30:27.888Z,24.22
2018-09-02T15:32:56.806Z,24.38
2018-09-02T15:35:26.306Z,24.28
2018-09-02T15:37:55.385Z,24.31
2018-09-02T15:40:24.463Z,24.24
2018-09-02T15:42:53.537Z,24.19
2018-09-02T15:45:23.189Z,24.03
2018-09-02T15:47:52.324Z,24.17
2018-09-02T15:50:21.354Z,24.14
2018-09-02T15:52:50.260Z,24.03
2018-09-02T15:55:19.382Z,23.89
2018-09-02T15:57:48.543Z,23.94
2018-09-02T16:00:17.567Z,24.05
2018-09-02T16:02:46.561Z,24.02
2018-09-02T16:05:15.640Z,24.15
2018-09-02T16:07:44.513Z,24.04
2018-09-02T16:10:13.391Z,24.14
2018-09-02T16:12:42.830Z,24.24
2018-09-02T16:15:11.835Z,24.04
2018-09-02T16:17:41.004Z,24.15
2018-09-02T16:20:10.361Z,23.98
2018-09-02T16:22:39.282Z,24.04
2018-09-02T16:25:08.400Z,24.01
2018-09-02T16:27:37.498Z,24.16
2018-09-02T16:30:06.998Z,24.11
2018-09-02T16:32:35.962Z,24.01
2018-09-02T16:35:05.579Z,23.84
2018-09-02T16:37:34.647Z,23.85
2018-09-02T16:40:03.909Z,23.76
2018-09-02T16:42:32.972Z,23.57
2018-09-02T16:45:02.474Z,23.63
2018-09-02T16:47:31.777Z,23.56
2018-09-02T16:50:00.709Z,23.64
2018-09-02T16:52:29.780Z,23.61
2018-09-02T16:54:58.556Z,23.61
2018-09-02T16:57:27.564Z,23.50
2018-09-02T16:59:56.508Z,23.53
2018-09-02T17:02:25.844Z,23.49
2018-09-02T17:04:59.639Z,23.43
2018-09-02T17:07:28.743Z,23.58
2018-09-02T17:09:57.550Z,23.55
2018-09-02T17:12:26.613Z,23.42
2018-09-02T17:14:55.773Z,23.35
2018-09-02T17:17:24.780Z,23.19
2018-09-02T17:19:56.351Z,23.28
2018-09-02T17:22:25.306Z,23.31
2018-09-02T17:24:54.412Z,23.35
2018-09-02T17:27:23.326Z,23.31
2018-09-02T17:29:52.317Z,23.37
2018-09-02T17:32:22.508Z,23.37
2018-09-02T17:34:52.642Z,23.44
2018-09-02T17:37:21.585Z,23.48
2018-09-02T17:39:50.483Z,23.44
2018-09-02T17:42:19.470Z,23.31
2018-09-02T17:44:48.448Z,23.58
2018-09-02T17:47:17.465Z,23.54
2018-09-02T17:49:46.424Z,23.24
2018-09-02T17:52:16.202Z,23.38
2018-09-02T17:54:45.468Z,23.21
2018-09-02T17:57:14.545Z,23.31
2018-09-02T17:59:44.774Z,23.22
2018-09-02T18:02:13.714Z,23.19
2018-09-02T18:04:42.656Z,23.11
2018-09-02T18:07:11.665Z,23.16
2018-09-02T18:09:40.877Z,23.24
2018-09-02T18:12:09.985Z,23.20
2018-09-02T18:14:39.039Z,23.25
2018-09-02T18:17:08.614Z,23.05
2018-09-02T18:19:37.638Z,23.18
2018-09-02T18:22:07.265Z,23.20
2018-09-02T18:24:36.285Z,23.29
2018-09-02T18:27:05.507Z,23.19
2018-09-02T18:29:34.675Z,23.16
2018-09-02T18:32:04.007Z,23.03
2018-09-02T18:34:33.583Z,23.02
2018-09-02T18:37:02.706Z,23.16
2018-09-02T18:39:31.864Z,23.08
2018-09-02T18:42:00.926Z,23.20
2018-09-02T18:44:30.012Z,23.15
2018-09-02T18:46:59.354Z,23.35
2018-09-02T18:49:28.384Z,23.20
2018-09-02T18:51:57.795Z,23.20
2018-09-02T18:54:27.434Z,23.12
2018-09-02T18:56:57.777Z,23.20
2018-09-02T18:59:27.347Z,23.16
2018-09-02T19:01:57.390Z,23.23
2018-09-02T19:04:26.222Z,23.16
2018-09-02T19:06:56.050Z,23.09
2018-09-02T19:09:25.063Z,23.02
2018-09-02T19:11:54.650Z,23.01
2018-09-02T19:14:24.724Z,23.05
2018-09-02T19:16:53.838Z,23.05
2018-09-02T19:19:23.118Z,22.97
2018-09-02T19:21:53.145Z,23.01
2018-09-02T19:24:22.235Z,23.04
2018-09-02T19:26:51.229Z,22.88
2018-09-02T19:29:20.265Z,22.71
2018-09-02T19:31:49.514Z,22.63
2018-09-02T19:34:18.456Z,22.65
2018-09-02T19:36:47.274Z,22.70
2018-09-02T19:39:16.452Z,22.72
2018-09-02T19:41:47.156Z,22.75
2018-09-02T19:44:16.315Z,22.92
2018-09-02T19:46:45.809Z,22.98
2018-09-02T19:49:14.607Z,22.76
2018-09-02T19:51:43.989Z,22.95
2018-09-02T19:54:13.445Z,23.02
2018-09-02T19:56:42.554Z,22.89
2018-09-02T19:59:11.555Z,23.06
2018-09-02T20:01:40.583Z,23.07
2018-09-02T20:04:10.063Z,22.90
2018-09-02T20:06:39.830Z,23.02
2018-09-02T20:09:11.576Z,23.00
2018-09-02T20:11:40.661Z,22.77
2018-09-02T20:14:10.134Z,22.99
2018-09-02T20:16:39.281Z,22.88
2018-09-02T20:19:08.402Z,22.69
2018-09-02T20:21:37.598Z,22.80
2018-09-02T20:24:06.639Z,22.74
2018-09-02T20:26:36.472Z,22.84
2018-09-02T20:29:05.281Z,22.64
2018-09-02T20:31:34.434Z,22.86
2018-09-02T20:34:03.519Z,23.08
2018-09-02T20:36:32.450Z,23.05
2018-09-02T20:39:01.452Z,22.95
2018-09-02T20:41:30.420Z,22.87
2018-09-02T20:43:59.354Z,22.99
2018-09-02T20:46:28.528Z,22.92
2018-09-02T20:48:57.683Z,22.81
2018-09-02T20:51:26.629Z,22.94
2018-09-02T20:53:55.615Z,22.51
2018-09-02T20:56:25.033Z,22.82
2018-09-02T20:58:54.065Z,22.80
2018-09-02T21:01:23.156Z,22.92
2018-09-02T21:03:52.753Z,22.93
2018-09-02T21:06:21.808Z,22.84
2018-09-02T21:08:50.755Z,22.92
2018-09-02T21:11:19.964Z,22.94
2018-09-02T21:13:49.115Z,22.91
2018-09-02T21:16:18.493Z,22.86
2018-09-02T21:18:47.516Z,22.95
2018-09-02T21:21:17.545Z,22.95
2018-09-02T21:23:46.654Z,23.06
2018-09-02T21:26:16.123Z,22.90
2018-09-02T21:28:45.732Z,23.15
2018-09-02T21:31:15.110Z,22.98
2018-09-02T21:33:44.051Z,23.02
2018-09-02T21:36:12.971Z,22.98
2018-09-02T21:38:41.903Z,23.01
2018-09-02T21:41:11.087Z,22.93
2018-09-02T21:43:40.478Z,23.10
2018-09-02T21:46:09.928Z,23.09
2018-09-02T21:48:39.205Z,22.53
2018-09-02T21:51:08.365Z,22.92
2018-09-02T21:53:38.178Z,22.76
2018-09-02T21:56:07.283Z,22.72
2018-09-02T21:58:36.585Z,22.70
2018-09-02T22:01:05.604Z,22.70
2018-09-02T22:03:34.757Z,22.54
2018-09-02T22:06:03.524Z,22.49
2018-09-02T22:08:32.329Z,22.82
2018-09-02T22:11:01.805Z,22.72
2018-09-02T22:13:30.781Z,22.58
2018-09-02T22:15:59.599Z,22.67
2018-09-02T22:18:28.734Z,22.83
2018-09-02T22:20:58.551Z,22.74
2018-09-02T22:23:28.437Z,22.81
2018-09-02T22:25:57.319Z,22.80
2018-09-02T22:28:26.452Z,22.88
2018-09-02T22:30:55.377Z,22.82
2018-09-02T22:33:24.411Z,22.94
2018-09-02T22:35:53.358Z,22.81
2018-09-02T22:38:22.565Z,22.78
2018-09-02T22:40:51.726Z,22.92
2018-09-02T22:43:20.818Z,22.91
2018-09-02T22:45:49.587Z,22.69
2018-09-02T22:48:18.552Z,22.92
2018-09-02T22:50:47.799Z,22.85
2018-09-02T22:53:17.051Z,23.02
2018-09-02T22:55:46.055Z,22.76
2018-09-02T22:58:15.122Z,22.54
2018-09-02T23:00:44.772Z,22.83
2018-09-02T23:03:13.912Z,22.93
2018-09-02T23:05:43.400Z,22.38
2018-09-02T23:08:12.389Z,22.74
2018-09-02T23:10:41.420Z,22.77
2018-09-02T23:13:10.593Z,22.66
2018-09-02T23:15:40.403Z,22.79
2018-09-02T23:18:09.444Z,22.57
2018-09-02T23:20:38.312Z,22.78
2018-09-02T23:23:07.140Z,22.72
2018-09-02T23:25:36.066Z,22.70
2018-09-02T23:28:05.326Z,22.82
2018-09-02T23:30:34.298Z,22.79
2018-09-02T23:33:03.246Z,22.88
2018-09-02T23:35:32.257Z,22.59
2018-09-02T23:38:01.223Z,22.54
2018-09-02T23:40:30.211Z,22.64
2018-09-02T23:42:59.110Z,22.84
2018-09-02T23:45:28.076Z,22.51
2018-09-02T23:47:57.095Z,22.65
2018-09-02T23:50:27.158Z,22.68
2018-09-02T23:52:56.087Z,22.42
2018-09-02T23:55:25.220Z,22.83
2018-09-02T23:57:54.772Z,22.71
